createdAt,value
2023-04-22T00:01:52.797Z,100240.37
2023-04-22T00:04:27.574Z,100235.78
2023-04-22T00:07:03.354Z,100237.69
2023-04-22T00:09:38.556Z,100234.25
2023-04-22T00:12:13.687Z,100247.50
2023-04-22T00:14:48.295Z,100237.50
2023-04-22T00:17:22.575Z,100241.69
2023-04-22T00:19:57.424Z,100236.09
2023-04-22T00:22:33.351Z,100234.28
2023-04-22T00:25:08.841Z,100233.72
2023-04-22T00:27:43.322Z,100250.22
2023-04-22T00:30:18.063Z,100242.38
2023-04-22T00:32:52.941Z,100244.44
2023-04-22T00:35:27.616Z,100242.03
2023-04-22T00:38:03.481Z,100247.06
2023-04-22T00:40:38.227Z,100244.37
2023-04-22T00:43:13.690Z,100251.16
2023-04-22T00:45:50.362Z,100256.41
2023-04-22T00:48:28.690Z,100243.00
2023-04-22T00:51:04.394Z,100247.47
2023-04-22T00:53:40.078Z,100252.62
2023-04-22T00:56:15.043Z,100255.44
2023-04-22T00:58:49.679Z,100252.94
2023-04-22T01:01:25.128Z,100248.34
2023-04-22T01:04:01.123Z,100246.12
2023-04-22T01:06:38.107Z,100247.94
2023-04-22T01:09:14.593Z,100249.75
2023-04-22T01:11:49.311Z,100251.94
2023-04-22T01:14:23.876Z,100250.47
2023-04-22T01:16:59.237Z,100255.50
2023-04-22T01:19:33.921Z,100262.44
2023-04-22T01:22:09.661Z,100256.63
2023-04-22T01:24:45.502Z,100256.84
2023-04-22T01:27:21.037Z,100262.59
2023-04-22T01:29:55.461Z,100260.25
2023-04-22T01:32:31.187Z,100267.31
2023-04-22T01:35:06.254Z,100264.91
2023-04-22T01:37:41.233Z,100255.34
2023-04-22T01:40:19.939Z,100259.62
2023-04-22T01:42:54.735Z,100264.91
2023-04-22T01:45:29.378Z,100266.72
2023-04-22T01:48:04.055Z,100259.31
2023-04-22T01:50:38.997Z,100264.19
2023-04-22T01:53:14.088Z,100257.22
2023-04-22T01:55:50.040Z,100259.50
2023-04-22T01:58:26.382Z,100265.38
2023-04-22T02:01:01.582Z,100259.91
2023-04-22T02:03:37.241Z,100259.91
2023-04-22T02:06:11.664Z,100260.66
2023-04-22T02:08:46.747Z,100269.97
2023-04-22T02:11:23.610Z,100254.41
2023-04-22T02:13:59.107Z,100253.69
2023-04-22T02:16:33.471Z,100260.47
2023-04-22T02:19:08.196Z,100261.37
2023-04-22T02:21:42.858Z,100256.97
2023-04-22T02:24:17.897Z,100254.47
2023-04-22T02:26:53.709Z,100261.34
2023-04-22T02:29:28.961Z,100249.19
2023-04-22T02:32:05.091Z,100251.81
2023-04-22T02:34:39.777Z,100244.69
2023-04-22T02:37:14.178Z,100248.72
2023-04-22T02:39:48.828Z,100249.81
2023-04-22T02:42:24.778Z,100247.94
2023-04-22T02:44:59.492Z,100239.94
2023-04-22T02:47:33.912Z,100251.88
2023-04-22T02:50:09.715Z,100259.50
2023-04-22T02:52:44.094Z,100253.31
2023-04-22T02:55:18.848Z,100244.37
2023-04-22T02:57:54.566Z,100258.06
2023-04-22T03:00:29.471Z,100243.91
2023-04-22T03:03:04.023Z,100249.66
2023-04-22T03:05:39.001Z,100254.50
2023-04-22T03:08:13.413Z,100250.34
2023-04-22T03:10:48.122Z,100252.22
2023-04-22T03:13:23.810Z,100243.63
2023-04-22T03:15:58.706Z,100241.81
2023-04-22T03:18:33.181Z,100248.84
2023-04-22T03:21:08.749Z,100254.22
2023-04-22T03:23:43.158Z,100256.50
2023-04-22T03:26:18.106Z,100253.31
2023-04-22T03:28:54.021Z,100257.31
2023-04-22T03:31:29.173Z,100269.53
2023-04-22T03:34:03.999Z,100275.56
2023-04-22T03:36:39.174Z,100269.66
2023-04-22T03:39:13.917Z,100275.41
2023-04-22T03:41:49.043Z,100275.72
2023-04-22T03:44:25.433Z,100288.97
2023-04-22T03:47:01.626Z,100279.69
2023-04-22T03:49:37.870Z,100282.91
2023-04-22T03:52:12.843Z,100284.87
2023-04-22T03:54:47.977Z,100277.56
2023-04-22T03:57:22.774Z,100284.22
2023-04-22T03:59:59.122Z,100281.34
2023-04-22T04:02:34.096Z,100283.44
2023-04-22T04:05:11.547Z,100289.41
2023-04-22T04:07:46.220Z,100286.91
2023-04-22T04:10:21.081Z,100275.94
2023-04-22T04:12:55.909Z,100281.94
2023-04-22T04:15:32.806Z,100283.12
2023-04-22T04:18:08.151Z,100280.78
2023-04-22T04:20:44.023Z,100285.25
2023-04-22T04:23:18.619Z,100286.38
2023-04-22T04:25:53.899Z,100284.78
2023-04-22T04:28:30.353Z,100302.00
2023-04-22T04:31:06.753Z,100302.91
2023-04-22T04:33:41.451Z,100299.06
2023-04-22T04:36:17.939Z,100304.56
2023-04-22T04:38:53.714Z,100310.72
2023-04-22T04:41:31.995Z,100307.94
2023-04-22T04:44:07.036Z,100308.78
2023-04-22T04:46:43.380Z,100310.47
2023-04-22T04:49:18.182Z,100311.03
2023-04-22T04:51:54.011Z,100304.25
2023-04-22T04:54:28.439Z,100304.16
2023-04-22T04:57:03.726Z,100303.00
2023-04-22T04:59:39.202Z,100307.94
2023-04-22T05:02:15.766Z,100315.00
2023-04-22T05:04:50.397Z,100311.19
2023-04-22T05:07:28.207Z,100307.25
2023-04-22T05:10:05.103Z,100308.91
2023-04-22T05:12:40.925Z,100314.25
2023-04-22T05:15:16.157Z,100309.28
2023-04-22T05:17:52.556Z,100311.75
2023-04-22T05:20:27.238Z,100316.59
2023-04-22T05:23:01.874Z,100309.38
2023-04-22T05:25:36.211Z,100313.47
2023-04-22T05:28:11.594Z,100317.88
2023-04-22T05:30:46.920Z,100311.75
2023-04-22T05:33:23.774Z,100310.19
2023-04-22T05:35:58.275Z,100319.72
2023-04-22T05:38:33.108Z,100311.37
2023-04-22T05:41:07.577Z,100315.97
2023-04-22T05:43:43.073Z,100315.91
2023-04-22T05:46:18.815Z,100320.31
2023-04-22T05:48:57.949Z,100318.84
2023-04-22T05:51:37.147Z,100319.03
2023-04-22T05:54:12.019Z,100319.63
2023-04-22T05:56:46.489Z,100328.56
2023-04-22T05:59:21.749Z,100329.72
2023-04-22T06:02:59.794Z,100325.09
2023-04-22T06:05:35.064Z,100325.09
2023-04-22T06:08:19.746Z,100329.09
2023-04-22T06:10:58.190Z,100332.78
2023-04-22T06:13:33.661Z,100333.62
2023-04-22T06:18:49.367Z,100332.28
2023-04-22T06:21:25.458Z,100327.63
2023-04-22T06:24:00.056Z,100334.78
2023-04-22T06:26:34.842Z,100336.34
2023-04-22T06:29:09.883Z,100337.97
2023-04-22T06:31:45.138Z,100343.06
2023-04-22T06:34:21.355Z,100342.47
2023-04-22T06:37:00.481Z,100338.94
2023-04-22T06:39:34.906Z,100337.25
2023-04-22T06:42:10.807Z,100331.84
2023-04-22T06:44:45.705Z,100334.69
2023-04-22T06:47:20.826Z,100335.34
2023-04-22T06:49:57.065Z,100339.59
2023-04-22T06:52:31.888Z,100341.06
2023-04-22T06:55:06.820Z,100347.78
2023-04-22T06:57:41.781Z,100345.97
2023-04-22T07:00:16.800Z,100349.03
2023-04-22T07:02:51.699Z,100344.97
2023-04-22T07:05:28.040Z,100341.16
2023-04-22T07:08:03.106Z,100348.47
2023-04-22T07:10:37.400Z,100344.50
2023-04-22T07:13:13.056Z,100349.66
2023-04-22T07:15:47.461Z,100346.06
2023-04-22T07:18:22.170Z,100346.06
2023-04-22T07:20:58.019Z,100346.09
2023-04-22T07:23:32.807Z,100346.78
2023-04-22T07:26:09.202Z,100332.91
2023-04-22T07:28:43.833Z,100340.00
2023-04-22T07:31:18.365Z,100334.72
2023-04-22T07:33:53.038Z,100340.81
2023-04-22T07:36:28.735Z,100328.72
2023-04-22T07:39:03.474Z,100335.28
2023-04-22T07:41:37.942Z,100336.31
2023-04-22T07:44:16.577Z,100341.13
2023-04-22T07:46:51.514Z,100333.03
2023-04-22T07:49:26.181Z,100329.28
2023-04-22T07:52:01.922Z,100330.03
2023-04-22T07:54:36.604Z,100335.59
2023-04-22T07:57:10.985Z,100338.87
2023-04-22T07:59:45.630Z,100331.03
2023-04-22T08:02:20.172Z,100333.78
2023-04-22T08:04:55.167Z,100336.84
2023-04-22T08:07:33.558Z,100339.38
2023-04-22T08:10:09.585Z,100337.59
2023-04-22T08:12:43.995Z,100325.72
2023-04-22T08:15:18.824Z,100338.59
2023-04-22T08:17:53.253Z,100340.28
2023-04-22T08:20:28.004Z,100331.94
2023-04-22T08:23:03.935Z,100332.03
2023-04-22T08:25:38.542Z,100330.81
2023-04-22T08:28:13.225Z,100328.94
2023-04-22T08:30:47.921Z,100334.38
2023-04-22T08:33:22.375Z,100326.06
2023-04-22T08:35:56.974Z,100329.59
2023-04-22T08:38:32.936Z,100333.13
2023-04-22T08:41:07.908Z,100333.31
2023-04-22T08:43:42.943Z,100328.34
2023-04-22T08:46:20.121Z,100337.72
2023-04-22T08:48:55.642Z,100335.44
2023-04-22T08:51:33.643Z,100329.16
2023-04-22T08:54:09.818Z,100333.47
2023-04-22T08:56:46.370Z,100336.34
2023-04-22T08:59:23.769Z,100338.06
2023-04-22T09:02:00.045Z,100335.59
2023-04-22T09:04:34.997Z,100336.91
2023-04-22T09:07:09.911Z,100341.28
2023-04-22T09:09:46.671Z,100330.69
2023-04-22T09:12:21.473Z,100336.28
2023-04-22T09:14:56.564Z,100335.91
2023-04-22T09:17:37.352Z,100332.28
2023-04-22T09:20:13.190Z,100337.47
2023-04-22T09:22:49.718Z,100324.56
2023-04-22T09:25:28.195Z,100319.97
2023-04-22T09:28:03.443Z,100324.81
2023-04-22T09:30:38.108Z,100318.75
2023-04-22T09:33:13.877Z,100320.16
2023-04-22T09:35:48.135Z,100315.66
2023-04-22T09:38:22.687Z,100322.94
2023-04-22T09:40:58.385Z,100321.44
2023-04-22T09:43:34.256Z,100311.25
2023-04-22T09:46:08.863Z,100314.63
2023-04-22T09:48:47.773Z,100314.75
2023-04-22T09:51:22.247Z,100313.50
2023-04-22T09:54:01.662Z,100311.66
2023-04-22T22:02:57.867Z,100200.16
2023-04-22T22:05:33.454Z,100200.16
2023-04-22T22:08:08.392Z,100200.88
2023-04-22T22:10:44.466Z,100196.41
2023-04-22T22:13:18.871Z,100197.66
2023-04-22T22:15:55.462Z,100204.84
2023-04-22T22:18:31.387Z,100206.84
2023-04-22T22:21:06.065Z,100204.91
2023-04-22T22:23:40.572Z,100213.28
2023-04-22T22:29:25.901Z,100206.91
2023-04-22T22:32:18.785Z,100205.84
2023-04-22T22:34:54.621Z,100200.72
2023-04-22T22:37:29.320Z,100204.13
2023-04-22T22:40:03.923Z,100209.69
2023-04-22T22:42:38.901Z,100217.63
2023-04-22T22:45:13.525Z,100211.00
2023-04-22T22:47:48.324Z,100212.09
2023-04-22T22:50:24.811Z,100210.72
2023-04-22T22:53:00.661Z,100208.22
2023-04-22T22:55:35.192Z,100215.16
2023-04-22T22:58:09.764Z,100205.47
2023-04-22T23:01:02.783Z,100217.63
2023-04-22T23:03:38.392Z,100213.06
2023-04-22T23:06:14.182Z,100218.03
2023-04-22T23:08:48.805Z,100211.94
2023-04-22T23:11:23.102Z,100207.75
2023-04-22T23:13:58.068Z,100203.16
2023-04-22T23:16:32.445Z,100205.16
2023-04-22T23:19:07.739Z,100204.34
2023-04-22T23:24:54.659Z,100208.69
2023-04-22T23:27:29.979Z,100206.84
2023-04-22T23:30:06.033Z,100208.38
2023-04-22T23:32:41.683Z,100210.25
2023-04-22T23:35:16.832Z,100210.88
2023-04-22T23:37:53.677Z,100206.56
2023-04-22T23:40:28.278Z,100198.09
2023-04-22T23:43:02.605Z,100200.94
2023-04-22T23:45:37.308Z,100200.00
2023-04-22T23:48:11.621Z,100203.06
2023-04-22T23:50:46.352Z,100202.87
2023-04-22T23:53:22.023Z,100202.44
2023-04-22T23:55:57.236Z,100202.28
